createdAt,value
2022-08-11T00:00:12.435Z,1.08
2022-08-11T00:02:45.923Z,0.75
2022-08-11T00:05:17.585Z,0.70
2022-08-11T00:10:18.982Z,0.73
2022-08-11T00:12:54.135Z,0.43
2022-08-11T00:15:26.305Z,0.70
2022-08-11T00:18:01.043Z,0.60
2022-08-11T00:20:33.632Z,0.60
2022-08-11T00:23:07.254Z,0.35
2022-08-11T00:25:41.652Z,0.70
2022-08-11T00:28:30.455Z,0.57
2022-08-11T00:31:04.693Z,0.63
2022-08-11T00:33:41.129Z,0.70
2022-08-11T00:36:23.463Z,0.52
2022-08-11T00:38:57.399Z,0.80
2022-08-11T00:41:38.163Z,0.40
2022-08-11T00:44:34.385Z,0.90
2022-08-11T00:47:17.153Z,1.08
2022-08-11T00:50:04.780Z,0.75
2022-08-11T00:53:00.064Z,1.02
2022-08-11T00:56:01.723Z,0.70
2022-08-11T00:59:32.215Z,0.68
2022-08-11T01:02:16.562Z,0.85
2022-08-11T01:05:30.338Z,0.98
2022-08-11T01:08:43.009Z,0.98
2022-08-11T01:11:55.994Z,0.90
2022-08-11T01:15:02.706Z,1.33
2022-08-11T01:18:08.836Z,1.10
2022-08-11T01:21:24.728Z,0.70
2022-08-11T01:24:31.930Z,1.00
2022-08-11T01:27:40.366Z,1.13
2022-08-11T01:30:49.922Z,1.17
2022-08-11T01:33:49.282Z,1.15
2022-08-11T01:36:58.776Z,0.82
2022-08-11T01:40:13.676Z,0.90
2022-08-11T01:43:33.449Z,1.10
2022-08-11T01:46:08.735Z,1.25
2022-08-11T01:48:44.716Z,0.95
2022-08-11T01:51:44.727Z,1.00
2022-08-11T01:54:26.626Z,0.77
2022-08-11T01:57:05.157Z,1.00
2022-08-11T01:59:39.442Z,0.95
2022-08-11T02:02:45.521Z,0.98
2022-08-11T02:05:28.008Z,1.00
2022-08-11T02:08:04.992Z,0.93
2022-08-11T02:10:59.469Z,1.00
2022-08-11T02:13:56.144Z,0.82
2022-08-11T02:16:39.239Z,0.80
2022-08-11T02:19:35.958Z,0.98
2022-08-11T02:22:21.641Z,1.00
2022-08-11T02:25:17.610Z,1.30
2022-08-11T02:28:08.502Z,1.05
2022-08-11T02:30:44.326Z,0.98
2022-08-11T02:33:24.639Z,1.20
2022-08-11T02:36:01.858Z,1.35
2022-08-11T02:38:37.139Z,1.80
2022-08-11T02:41:25.486Z,1.50
2022-08-11T02:44:12.477Z,1.13
2022-08-11T02:46:53.763Z,0.98
2022-08-11T02:50:00.093Z,1.05
2022-08-11T02:52:44.924Z,1.30
2022-08-11T02:55:55.763Z,1.30
2022-08-11T02:58:22.031Z,1.13
2022-08-11T03:01:11.044Z,1.35
2022-08-11T03:03:50.885Z,1.20
2022-08-11T03:06:31.649Z,1.10
2022-08-11T03:09:08.192Z,0.82
2022-08-11T03:12:13.336Z,1.20
2022-08-11T03:15:04.754Z,1.33
2022-08-11T03:17:43.721Z,1.20
2022-08-11T03:20:33.319Z,1.30
2022-08-11T03:23:19.987Z,1.27
2022-08-11T03:25:57.431Z,1.13
2022-08-11T03:28:35.589Z,1.85
2022-08-11T03:31:18.821Z,1.00
2022-08-11T03:34:07.325Z,1.10
2022-08-11T03:37:17.117Z,1.40
2022-08-11T03:40:01.908Z,1.20
2022-08-11T03:42:42.337Z,1.50
2022-08-11T03:45:24.540Z,1.60
2022-08-11T03:48:11.112Z,1.40
2022-08-11T03:51:09.914Z,1.33
2022-08-11T03:53:57.682Z,1.50
2022-08-11T03:57:05.072Z,1.42
2022-08-11T04:00:09.775Z,1.58
2022-08-11T04:03:07.655Z,1.88
2022-08-11T04:06:34.518Z,1.65
2022-08-11T04:09:52.649Z,2.03
2022-08-11T04:13:01.805Z,1.70
2022-08-11T04:16:11.085Z,1.73
2022-08-11T04:19:18.325Z,1.98
2022-08-11T04:22:10.248Z,1.88
2022-08-11T04:28:02.726Z,1.80
2022-08-11T04:30:46.947Z,2.30
2022-08-11T04:33:43.207Z,2.35
2022-08-11T04:36:55.827Z,1.88
2022-08-11T04:39:45.275Z,2.00
2022-08-11T04:42:55.326Z,1.75
2022-08-11T04:45:44.396Z,1.83
2022-08-11T04:48:53.851Z,1.88
2022-08-11T04:52:37.924Z,1.70
2022-08-11T04:55:47.472Z,1.98
2022-08-11T04:58:37.603Z,2.10
2022-08-11T05:01:37.382Z,2.28
2022-08-11T05:04:51.203Z,1.70
2022-08-11T05:07:54.432Z,1.98
2022-08-11T05:10:45.316Z,1.90
2022-08-11T05:13:37.196Z,2.00
2022-08-11T05:16:26.795Z,2.00
2022-08-11T05:19:10.090Z,2.42
2022-08-11T05:21:54.846Z,2.63
2022-08-11T05:24:45.634Z,2.63
2022-08-11T05:27:31.130Z,2.40
2022-08-11T05:30:17.946Z,2.40
2022-08-11T05:33:11.792Z,2.85
2022-08-11T05:36:02.617Z,2.10
2022-08-11T05:38:48.829Z,2.10
2022-08-11T05:41:35.925Z,2.30
2022-08-11T05:44:22.469Z,3.05
2022-08-11T05:47:06.205Z,2.50
2022-08-11T05:49:49.695Z,2.47
2022-08-11T05:52:35.295Z,2.50
2022-08-11T05:57:59.253Z,2.10
2022-08-11T06:00:32.036Z,2.90
2022-08-11T06:03:06.989Z,2.55
2022-08-11T06:05:43.458Z,2.10
2022-08-11T06:08:15.529Z,2.28
2022-08-11T06:10:49.766Z,2.33
2022-08-11T06:13:20.115Z,2.10
2022-08-11T06:15:55.501Z,1.80
2022-08-11T06:18:25.539Z,2.45
2022-08-11T06:20:56.817Z,2.10
2022-08-11T06:25:56.680Z,2.30
2022-08-11T06:28:34.676Z,2.08
2022-08-11T06:31:14.588Z,2.20
2022-08-11T06:33:55.992Z,2.03
2022-08-11T06:36:33.895Z,2.05
2022-08-11T06:39:15.534Z,2.58
2022-08-11T06:44:25.243Z,2.25
2022-08-11T06:47:00.654Z,2.20
2022-08-11T06:49:50.422Z,2.55
2022-08-11T06:52:35.264Z,2.05
2022-08-11T06:55:55.632Z,2.03
2022-08-11T06:58:12.908Z,2.25
2022-08-11T07:00:43.380Z,2.10
2022-08-11T07:03:19.178Z,2.47
2022-08-11T07:05:54.257Z,2.10
2022-08-11T07:09:10.061Z,6.43
2022-08-11T07:12:32.760Z,1.80
2022-08-11T07:16:10.718Z,2.65
2022-08-11T07:18:37.601Z,1.70
2022-08-11T07:22:00.411Z,2.03
2022-08-11T07:24:59.473Z,1.88
2022-08-11T07:27:52.033Z,1.55
2022-08-11T07:30:21.456Z,1.60
2022-08-11T07:32:54.614Z,9.73
2022-08-11T07:35:32.171Z,1.65
2022-08-11T07:38:07.844Z,2.15
2022-08-11T07:40:38.313Z,1.95
2022-08-11T07:43:09.292Z,5.40
2022-08-11T07:45:56.977Z,3.28
2022-08-11T07:48:39.291Z,2.47
2022-08-11T07:51:24.148Z,1.77
2022-08-11T07:53:58.302Z,1.60
2022-08-11T07:56:54.751Z,2.47
2022-08-11T08:00:03.760Z,1.40
2022-08-11T08:02:41.901Z,1.55
2022-08-11T08:05:24.254Z,1.73
2022-08-11T08:08:08.509Z,2.72
2022-08-11T08:10:53.314Z,4.53
2022-08-11T08:13:35.599Z,3.53
2022-08-11T08:16:17.995Z,1.80
2022-08-11T08:18:48.208Z,1.70
2022-08-11T08:21:17.544Z,3.70
2022-08-11T08:23:53.078Z,1.65
2022-08-11T08:26:39.084Z,1.60
2022-08-11T08:29:22.772Z,1.38
2022-08-11T08:31:52.983Z,5.07
2022-08-11T08:34:23.217Z,2.03
2022-08-11T08:36:53.507Z,2.13
2022-08-11T08:39:25.393Z,8.25
2022-08-11T08:41:57.946Z,1.85
2022-08-11T08:44:39.106Z,1.67
2022-08-11T08:47:14.515Z,1.85
2022-08-11T08:49:52.426Z,5.60
2022-08-11T08:52:30.958Z,1.85
2022-08-11T08:55:21.769Z,3.40
2022-08-11T08:57:54.218Z,2.03
2022-08-11T09:00:25.162Z,1.70
2022-08-11T09:05:26.059Z,1.40
2022-08-11T09:07:57.678Z,1.70
2022-08-11T09:10:32.584Z,4.85
2022-08-11T09:13:02.887Z,1.52
2022-08-11T09:15:32.393Z,3.92
2022-08-11T09:18:05.543Z,2.13
2022-08-11T09:20:38.161Z,1.80
2022-08-11T09:24:07.789Z,1.80
2022-08-11T09:26:30.573Z,1.63
2022-08-11T09:29:02.525Z,8.18
2022-08-11T09:31:38.999Z,1.67
2022-08-11T09:34:11.662Z,1.65
2022-08-11T09:36:56.061Z,1.40
2022-08-11T09:39:42.607Z,1.70
2022-08-11T09:42:16.285Z,1.60
2022-08-11T09:44:51.851Z,1.30
2022-08-11T09:47:27.496Z,2.00
2022-08-11T09:50:01.211Z,2.75
2022-08-11T09:52:38.407Z,1.48
2022-08-11T09:55:10.619Z,1.73
2022-08-11T09:58:00.403Z,9.07
2022-08-11T10:00:36.868Z,2.20
2022-08-11T10:03:09.930Z,1.40
2022-08-11T10:05:58.967Z,3.95
2022-08-11T10:08:32.832Z,1.70
2022-08-11T10:11:03.278Z,1.20
2022-08-11T10:14:33.490Z,1.65
2022-08-11T10:16:45.324Z,1.30
2022-08-11T10:19:14.939Z,1.80
2022-08-11T10:22:06.961Z,2.00
2022-08-11T10:24:50.094Z,3.88
2022-08-11T10:27:19.812Z,1.55
2022-08-11T10:30:06.051Z,1.35
2022-08-11T10:32:58.832Z,1.23
2022-08-11T10:35:31.428Z,1.23
2022-08-11T10:38:06.352Z,1.17
2022-08-11T10:40:40.842Z,1.30
2022-08-11T10:43:13.054Z,1.40
2022-08-11T10:46:10.032Z,1.40
2022-08-11T10:48:40.909Z,1.35
2022-08-11T10:51:42.804Z,1.35
2022-08-11T10:54:20.656Z,1.98
2022-08-11T10:57:03.084Z,3.00
2022-08-11T10:59:35.701Z,3.25
2022-08-11T11:02:07.749Z,4.43
2022-08-11T11:04:54.466Z,1.73
2022-08-11T11:07:27.118Z,2.65
2022-08-11T11:09:59.927Z,1.73
2022-08-11T11:12:46.650Z,1.50
2022-08-11T11:15:32.980Z,2.40
2022-08-11T11:18:09.048Z,1.60
2022-08-11T11:20:47.403Z,1.52
2022-08-11T11:23:21.741Z,1.70
2022-08-11T11:26:15.114Z,1.42
2022-08-11T11:29:05.166Z,1.63
2022-08-11T11:31:48.011Z,1.67
2022-08-11T11:34:28.811Z,1.65
2022-08-11T11:37:00.336Z,1.70
2022-08-11T11:42:03.914Z,1.48
2022-08-11T11:44:35.816Z,1.70
2022-08-11T11:47:06.483Z,1.45
2022-08-11T11:49:39.149Z,1.30
2022-08-11T11:52:10.418Z,1.63
2022-08-11T11:54:41.413Z,2.88
2022-08-11T11:57:23.878Z,1.42
2022-08-11T12:00:07.414Z,1.70
2022-08-11T12:02:39.901Z,1.55
2022-08-11T12:05:14.466Z,1.80
2022-08-11T12:08:05.290Z,1.33
2022-08-11T12:10:45.540Z,1.65
2022-08-11T12:13:28.364Z,1.50
2022-08-11T12:16:35.069Z,1.85
2022-08-11T12:18:53.474Z,1.50
2022-08-11T12:21:26.265Z,1.65
2022-08-11T12:24:11.162Z,1.23
2022-08-11T12:27:01.403Z,1.38
2022-08-11T12:29:45.318Z,1.50
2022-08-11T12:34:43.947Z,1.50
2022-08-11T12:37:18.261Z,1.40
2022-08-11T12:40:16.263Z,1.30
2022-08-11T12:43:08.362Z,4.57
2022-08-11T12:45:57.863Z,1.30
2022-08-11T12:49:00.766Z,1.17
2022-08-11T12:57:49.215Z,1.73
2022-08-11T13:00:33.004Z,1.45
2022-08-11T13:03:16.321Z,1.73
2022-08-11T13:05:49.199Z,1.48
2022-08-11T13:08:19.653Z,1.55
2022-08-11T13:11:19.610Z,3.08
2022-08-11T13:13:57.411Z,1.75
2022-08-11T13:16:30.948Z,1.80
2022-08-11T13:19:14.938Z,1.67
2022-08-11T13:21:45.196Z,2.15
2022-08-11T13:24:14.518Z,2.10
2022-08-11T13:26:48.737Z,2.40
2022-08-11T13:29:24.846Z,1.42
2022-08-11T13:31:59.306Z,1.30
2022-08-11T13:38:17.387Z,1.77
2022-08-11T13:40:13.326Z,1.42
2022-08-11T13:45:14.567Z,1.60
2022-08-11T13:47:44.998Z,2.40
2022-08-11T13:50:16.735Z,2.28
2022-08-11T13:52:50.131Z,1.85
2022-08-11T13:55:51.114Z,1.48
2022-08-11T13:58:20.746Z,2.33
2022-08-11T14:02:03.620Z,1.63
2022-08-11T14:04:30.806Z,1.33
2022-08-11T14:06:52.694Z,1.55
2022-08-11T14:09:28.070Z,1.60
2022-08-11T14:12:21.518Z,1.48
2022-08-11T14:15:08.150Z,1.63
2022-08-11T14:17:47.981Z,1.70
2022-08-11T14:20:38.541Z,1.98
2022-08-11T14:23:11.239Z,1.65
2022-08-11T14:26:05.452Z,1.50
2022-08-11T14:28:44.470Z,1.70
2022-08-11T14:31:16.341Z,2.40
2022-08-11T14:33:59.949Z,3.97
2022-08-11T14:36:34.522Z,3.10
2022-08-11T14:39:07.805Z,1.50
2022-08-11T14:42:10.512Z,2.70
2022-08-11T14:44:55.373Z,1.60
2022-08-11T14:47:26.742Z,1.80
2022-08-11T14:50:10.733Z,1.73
2022-08-11T14:52:50.074Z,2.15
2022-08-11T14:55:33.748Z,2.05
2022-08-11T14:58:04.117Z,1.80
2022-08-11T15:00:36.298Z,2.50
2022-08-11T15:03:10.041Z,1.70
2022-08-11T15:05:56.522Z,2.13
2022-08-11T15:08:43.300Z,1.83
2022-08-11T15:11:26.587Z,2.05
2022-08-11T15:13:56.913Z,2.10
2022-08-11T15:16:40.463Z,2.00
2022-08-11T15:19:10.437Z,1.90
2022-08-11T15:22:06.635Z,2.80
2022-08-11T15:24:36.486Z,1.92
2022-08-11T15:27:24.751Z,1.65
2022-08-11T15:30:20.903Z,1.58
2022-08-11T15:33:15.296Z,2.47
2022-08-11T15:35:58.009Z,2.00
2022-08-11T15:38:31.004Z,1.45
2022-08-11T15:41:15.739Z,1.60
2022-08-11T15:44:04.415Z,2.67
2022-08-11T15:46:42.008Z,1.90
2022-08-11T15:49:22.158Z,1.80
2022-08-11T15:52:02.051Z,3.00
2022-08-11T15:54:39.662Z,2.47
2022-08-11T15:57:30.478Z,1.73
2022-08-11T16:00:24.413Z,1.85
2022-08-11T16:03:12.427Z,1.95
2022-08-11T16:05:52.926Z,2.00
2022-08-11T16:08:32.596Z,2.03
2022-08-11T16:11:07.779Z,1.80
2022-08-11T16:13:54.153Z,1.73
2022-08-11T16:16:23.779Z,2.08
2022-08-11T16:19:41.520Z,1.98
2022-08-11T16:22:13.589Z,1.83
2022-08-11T16:27:01.428Z,1.75
2022-08-11T16:27:42.694Z,1.27
2022-08-11T16:30:15.045Z,1.50
2022-08-11T16:32:49.013Z,1.70
2022-08-11T16:35:35.746Z,1.85
2022-08-11T16:38:19.419Z,2.33
2022-08-11T16:40:51.102Z,2.28
2022-08-11T16:43:37.871Z,1.98
2022-08-11T16:46:21.999Z,3.22
2022-08-11T16:48:53.255Z,3.88
2022-08-11T16:51:24.176Z,2.70
2022-08-11T16:54:04.397Z,4.47
2022-08-11T16:56:39.286Z,4.70
2022-08-11T16:59:14.408Z,4.50
2022-08-11T17:01:46.581Z,5.22
2022-08-11T17:04:35.934Z,3.63
2022-08-11T17:07:23.453Z,2.83
2022-08-11T17:10:39.360Z,3.70
2022-08-11T17:13:23.331Z,2.72
2022-08-11T17:16:09.105Z,3.35
2022-08-11T17:18:45.086Z,3.28
2022-08-11T17:21:19.462Z,4.10
2022-08-11T17:23:51.929Z,2.80
2022-08-11T17:26:25.023Z,4.18
2022-08-11T17:28:58.645Z,3.85
2022-08-11T17:31:45.385Z,3.92
2022-08-11T17:34:31.935Z,3.88
2022-08-11T17:37:01.999Z,3.55
2022-08-11T17:39:35.377Z,3.88
2022-08-11T17:42:18.451Z,4.07
2022-08-11T17:45:02.722Z,3.58
2022-08-11T17:47:48.591Z,3.92
2022-08-11T17:50:19.094Z,3.47
2022-08-11T17:53:02.873Z,4.20
2022-08-11T17:55:52.120Z,4.40
2022-08-11T17:58:36.499Z,5.47
2022-08-11T18:01:09.372Z,12.13
2022-08-11T18:03:57.321Z,5.93
2022-08-11T18:06:33.587Z,4.65
2022-08-11T18:09:20.731Z,4.22
2022-08-11T18:12:10.236Z,4.55
2022-08-11T18:14:56.911Z,8.10
2022-08-11T18:17:39.433Z,10.13
2022-08-11T18:20:26.687Z,6.68
2022-08-11T18:23:11.281Z,7.85
2022-08-11T18:25:58.790Z,9.77
2022-08-11T18:28:47.615Z,6.68
2022-08-11T18:31:31.754Z,7.10
2022-08-11T18:34:19.312Z,7.93
2022-08-11T18:37:07.649Z,5.60
2022-08-11T18:39:57.363Z,8.10
2022-08-11T18:42:42.339Z,8.38
2022-08-11T18:45:28.825Z,6.55
2022-08-11T18:48:18.595Z,5.13
2022-08-11T18:51:36.289Z,6.55
2022-08-11T18:54:11.870Z,5.05
2022-08-11T18:56:56.607Z,3.63
2022-08-11T18:59:46.050Z,4.32
2022-08-11T19:02:31.483Z,3.63
2022-08-11T19:05:16.804Z,4.53
2022-08-11T19:08:03.532Z,4.13
2022-08-11T19:10:48.592Z,4.35
2022-08-11T19:13:34.559Z,4.60
2022-08-11T19:16:19.167Z,7.28
2022-08-11T19:19:02.606Z,4.57
2022-08-11T19:21:45.861Z,4.38
2022-08-11T19:24:29.590Z,5.60
2022-08-11T19:27:14.892Z,4.65
2022-08-11T19:30:04.833Z,4.05
2022-08-11T19:32:57.104Z,3.78
2022-08-11T19:35:40.076Z,4.03
2022-08-11T19:38:23.692Z,3.72
2022-08-11T19:41:07.107Z,5.72
2022-08-11T19:43:54.263Z,4.70
2022-08-11T19:46:45.471Z,4.13
2022-08-11T19:49:29.381Z,4.20
2022-08-11T19:52:12.173Z,4.05
2022-08-11T19:54:57.037Z,4.18
2022-08-11T19:57:40.534Z,3.50
2022-08-11T20:00:29.970Z,3.90
2022-08-11T20:03:13.697Z,4.15
2022-08-11T20:05:59.647Z,3.45
2022-08-11T20:08:45.024Z,3.50
2022-08-11T20:11:29.915Z,3.60
2022-08-11T20:14:14.154Z,3.97
2022-08-11T20:17:02.351Z,4.30
2022-08-11T20:19:56.143Z,4.38
2022-08-11T20:22:40.122Z,4.18
2022-08-11T20:25:25.120Z,4.88
2022-08-11T20:28:08.386Z,4.50
2022-08-11T20:30:51.741Z,4.35
2022-08-11T20:33:37.787Z,4.60
2022-08-11T20:36:22.523Z,3.58
2022-08-11T20:39:05.497Z,3.53
2022-08-11T20:41:58.802Z,3.10
2022-08-11T20:44:43.626Z,3.65
2022-08-11T20:47:26.582Z,3.60
2022-08-11T20:50:19.414Z,4.50
2022-08-11T20:53:04.979Z,4.25
2022-08-11T20:55:53.215Z,4.13
2022-08-11T20:59:11.245Z,3.85
2022-08-11T21:01:41.092Z,4.28
2022-08-11T21:04:23.814Z,4.40
2022-08-11T21:07:10.055Z,4.05
2022-08-11T21:10:01.069Z,3.95
2022-08-11T21:12:55.549Z,4.40
2022-08-11T21:15:47.578Z,3.95
2022-08-11T21:18:45.372Z,4.50
2022-08-11T21:21:29.797Z,4.30
2022-08-11T21:24:33.489Z,4.07
2022-08-11T21:27:21.748Z,3.80
2022-08-11T21:30:08.035Z,3.83
2022-08-11T21:32:51.547Z,4.00
2022-08-11T21:35:34.538Z,4.70
2022-08-11T21:38:18.979Z,4.28
2022-08-11T21:41:05.717Z,4.47
2022-08-11T21:43:48.745Z,4.38
2022-08-11T21:46:36.347Z,4.18
2022-08-11T21:49:21.493Z,4.18
2022-08-11T21:52:03.795Z,5.07
2022-08-11T21:54:46.915Z,5.22
2022-08-11T21:57:31.843Z,5.35
2022-08-11T22:00:14.735Z,5.32
2022-08-11T22:03:00.595Z,4.88
2022-08-11T22:05:47.899Z,4.63
2022-08-11T22:08:30.433Z,5.35
2022-08-11T22:11:13.279Z,4.75
2022-08-11T22:14:05.835Z,5.10
2022-08-11T22:16:50.136Z,5.40
2022-08-11T22:19:36.097Z,5.65
2022-08-11T22:22:19.331Z,5.63
2022-08-11T22:25:08.429Z,5.68
2022-08-11T22:27:59.040Z,5.97
2022-08-11T22:30:43.681Z,5.82
2022-08-11T22:33:28.993Z,6.07
2022-08-11T22:36:12.614Z,5.90
2022-08-11T22:38:56.529Z,5.75
2022-08-11T22:41:39.427Z,5.82
2022-08-11T22:44:22.015Z,6.00
2022-08-11T22:47:08.627Z,5.63
2022-08-11T22:49:57.697Z,5.00
2022-08-11T22:52:41.372Z,5.95
2022-08-11T22:55:25.042Z,6.07
2022-08-11T22:58:08.411Z,6.90
2022-08-11T23:00:51.603Z,6.05
2022-08-11T23:03:38.158Z,6.57
2022-08-11T23:06:21.802Z,5.60
2022-08-11T23:09:05.716Z,6.07
2022-08-11T23:12:07.250Z,5.03
2022-08-11T23:14:53.242Z,5.13
2022-08-11T23:17:35.674Z,5.85
2022-08-11T23:20:30.263Z,6.53
2022-08-11T23:23:15.919Z,6.90
2022-08-11T23:26:00.238Z,6.80
2022-08-11T23:28:47.194Z,6.15
2022-08-11T23:31:50.405Z,7.78
2022-08-11T23:35:02.459Z,7.32
2022-08-11T23:37:40.894Z,5.72
2022-08-11T23:40:25.166Z,5.60
2022-08-11T23:43:08.599Z,6.28
2022-08-11T23:45:52.273Z,6.13
2022-08-11T23:48:34.774Z,6.18
2022-08-11T23:51:18.261Z,6.10
2022-08-11T23:54:08.076Z,6.32
2022-08-11T23:56:51.019Z,5.90
2022-08-11T23:59:34.335Z,5.22
